Time;durP1;ratioP1;P1;durP2;ratioP2;P2;SDS_P1;SDS_P2;PMS_P1;PMS_P2;Temp;Humidity;BMP_temperature;BMP_pressure;BME280_temperature;BME280_humidity;BME280_pressure;Samples;Min_cycle;Max_cycle;Signal;HPM_P1;HPM_P2
2021/12/02 00:00:06;;;;;;;9.30;5.07;;;;;;;7.21;64.66;99037.12;1441901;89;21463;-82
2021/12/02 00:02:39;;;;;;;12.20;5.43;;;;;;;7.20;64.85;99032.86;1442667;89;21470;-83
2021/12/02 00:05:07;;;;;;;7.33;4.73;;;;;;;7.23;64.97;99032.53;1449320;89;21552;-83
2021/12/02 00:07:34;;;;;;;7.77;5.00;;;;;;;7.19;64.89;99029.91;1443232;89;22887;-83
2021/12/02 00:10:01;;;;;;;11.17;4.97;;;;;;;7.19;64.58;99027.27;1443286;89;21418;-83
2021/12/02 00:12:29;;;;;;;8.17;4.33;;;;;;;7.19;64.41;99028.59;1453030;89;21479;-84
2021/12/02 00:14:59;;;;;;;8.00;3.73;;;;;;;7.20;64.58;99023.64;1451810;89;21905;-83
2021/12/02 00:17:28;;;;;;;8.97;4.93;;;;;;;7.17;64.76;99035.81;1450965;89;22781;-82
2021/12/02 00:23:03;;;;;;;7.07;4.77;;;;;;;7.17;64.71;99030.55;1451162;89;21509;-83
2021/12/02 00:25:32;;;;;;;10.13;5.08;;;;;;;7.15;64.65;99032.50;1428718;90;22132;-83
2021/12/02 00:27:59;;;;;;;7.97;4.83;;;;;;;7.15;64.86;99030.37;1452134;89;21516;-82
2021/12/02 00:30:26;;;;;;;10.33;5.67;;;;;;;7.13;65.07;99035.78;1451876;89;21589;-83
2021/12/02 00:32:56;;;;;;;9.20;5.20;;;;;;;7.09;65.03;99027.06;1424531;89;21629;-83
2021/12/02 00:35:24;;;;;;;11.60;5.53;;;;;;;7.09;65.20;99023.94;1446695;89;21641;-83
2021/12/02 00:37:52;;;;;;;10.20;5.83;;;;;;;7.02;65.29;99018.99;1448342;89;22242;-84
2021/12/02 00:40:19;;;;;;;9.93;4.97;;;;;;;6.98;65.42;99021.59;1449862;89;21463;-84
2021/12/02 00:42:50;;;;;;;11.60;5.60;;;;;;;6.98;65.59;99024.22;1448968;89;21621;-83
2021/12/02 00:45:19;;;;;;;9.00;5.33;;;;;;;6.95;65.79;99020.59;1448691;89;22382;-83
2021/12/02 00:47:46;;;;;;;9.17;4.97;;;;;;;6.95;66.08;99016.66;1448593;89;21414;-84
2021/12/02 00:50:13;;;;;;;8.47;4.60;;;;;;;6.92;66.83;99020.91;1447350;89;21398;-84
2021/12/02 00:52:42;;;;;;;10.00;5.03;;;;;;;6.90;67.13;99013.66;1450535;89;21494;-84
2021/12/02 00:55:09;;;;;;;8.07;4.40;;;;;;;6.85;67.69;99019.88;1444718;89;21421;-85
2021/12/02 00:57:42;;;;;;;9.30;4.43;;;;;;;6.81;67.79;99021.20;1447352;89;21493;-84
2021/12/02 01:00:12;;;;;;;8.43;4.60;;;;;;;6.81;68.10;99030.40;1452488;89;21435;-84
2021/12/02 01:02:42;;;;;;;9.07;4.30;;;;;;;6.78;68.21;99017.07;1448871;89;22413;-84
2021/12/02 01:05:10;;;;;;;9.65;5.47;;;;;;;6.74;68.67;99026.27;1460450;89;21568;-83
2021/12/02 01:07:37;;;;;;;9.13;4.37;;;;;;;6.70;68.85;99023.13;1449326;89;21707;-83
2021/12/02 01:10:05;;;;;;;8.23;4.67;;;;;;;6.67;69.56;99015.53;1428859;89;21708;-84
2021/12/02 01:12:36;;;;;;;9.80;5.17;;;;;;;6.62;70.39;99016.52;1445125;89;21478;-84
2021/12/02 01:15:07;;;;;;;8.77;4.47;;;;;;;6.56;70.53;99021.09;1452950;89;22322;-84
2021/12/02 01:17:34;;;;;;;7.50;4.87;;;;;;;6.52;71.29;99024.99;1450257;89;22470;-84
2021/12/02 01:20:01;;;;;;;7.53;4.60;;;;;;;6.46;71.74;99021.67;1443619;89;21484;-85
2021/12/02 01:22:32;;;;;;;6.87;4.03;;;;;;;6.41;72.35;99020.81;1451484;89;21629;-85
2021/12/02 01:25:01;;;;;;;14.33;5.40;;;;;;;6.38;72.57;99017.19;1450174;88;22632;-85
2021/12/02 01:27:31;;;;;;;8.65;4.95;;;;;;;6.36;72.92;99006.49;1443995;89;22367;-84
2021/12/02 01:29:58;;;;;;;11.03;4.67;;;;;;;6.31;73.60;99011.73;1446881;89;21573;-84
2021/12/02 01:32:27;;;;;;;8.03;4.93;;;;;;;6.26;74.51;99011.37;1433858;89;21552;-84
2021/12/02 01:34:57;;;;;;;10.97;4.87;;;;;;;6.21;75.03;99015.44;1449667;89;23448;-84
2021/12/02 01:37:25;;;;;;;8.93;4.57;;;;;;;6.17;75.58;99010.98;1445314;89;23957;-84
2021/12/02 01:39:53;;;;;;;8.17;4.47;;;;;;;6.10;75.85;99009.96;1443748;89;21665;-84
2021/12/02 01:42:23;;;;;;;7.87;4.67;;;;;;;6.11;75.78;99012.91;1452521;89;21645;-84
2021/12/02 01:44:57;;;;;;;9.48;4.65;;;;;;;6.10;76.15;99009.96;1446475;89;21458;-84
2021/12/02 01:47:30;;;;;;;9.83;5.40;;;;;;;6.07;76.41;99012.88;1447244;89;21423;-85
2021/12/02 01:50:01;;;;;;;7.87;4.77;;;;;;;6.05;76.08;99006.97;1443955;89;21478;-85
2021/12/02 01:52:31;;;;;;;10.68;6.70;;;;;;;6.03;76.05;98994.47;1449939;89;21637;-84
2021/12/02 01:55:10;;;;;;;8.35;5.20;;;;;;;6.02;76.09;98992.83;1456338;89;21502;-84
2021/12/02 01:57:42;;;;;;;9.00;4.90;;;;;;;6.03;76.12;98995.78;1453894;89;22095;-84
2021/12/02 02:00:19;;;;;;;10.73;5.37;;;;;;;6.01;76.36;99001.20;1438674;89;21472;-84
2021/12/02 02:02:48;;;;;;;9.33;5.93;;;;;;;6.01;75.97;98997.27;1448195;89;21613;-84
2021/12/02 02:05:17;;;;;;;9.07;5.53;;;;;;;5.99;75.98;98987.89;1455229;89;21436;-84
2021/12/02 02:08:05;;;;;;;10.43;6.23;;;;;;;5.99;76.08;99000.52;1460272;89;21691;-84
2021/12/02 02:10:37;;;;;;;9.30;5.43;;;;;;;5.97;76.14;98989.34;1459985;89;21480;-84
2021/12/02 02:13:08;;;;;;;6.97;5.47;;;;;;;5.94;76.51;98992.77;1456508;89;22389;-85
2021/12/02 02:15:37;;;;;;;7.80;5.43;;;;;;;5.93;76.66;98996.31;1431400;90;22350;-86
2021/12/02 02:18:20;;;;;;;8.78;5.55;;;;;;;5.89;77.23;98996.63;1425548;91;22413;-86
2021/12/02 02:21:09;;;;;;;11.47;6.63;;;;;;;5.86;77.52;98994.80;1448878;89;21493;-86
2021/12/02 02:23:20;;;;;;;9.90;5.33;;;;;;;5.80;77.91;98997.55;1427207;89;22698;-85
2021/12/02 02:25:58;;;;;;;10.93;6.27;;;;;;;5.77;78.23;98993.91;1453596;89;21477;-85
2021/12/02 02:28:27;;;;;;;11.53;6.40;;;;;;;5.78;78.16;98998.20;1458448;89;22961;-84
2021/12/02 02:30:55;;;;;;;17.13;6.40;;;;;;;5.76;78.16;98992.27;1461373;89;21477;-85
2021/12/02 02:33:23;;;;;;;8.50;5.57;;;;;;;5.77;78.44;98987.34;1450278;89;21470;-85
2021/12/02 02:35:50;;;;;;;12.07;6.13;;;;;;;5.74;78.39;98986.34;1428052;90;21519;-85
2021/12/02 02:38:20;;;;;;;13.73;5.40;;;;;;;5.74;78.63;98985.03;1432220;91;21611;-85
2021/12/02 02:40:48;;;;;;;11.50;6.23;;;;;;;5.77;78.43;98982.59;1426352;90;21567;-85
2021/12/02 02:43:23;;;;;;;11.47;6.23;;;;;;;5.74;78.72;98981.58;1425763;90;22558;-85
2021/12/02 02:45:52;;;;;;;10.47;5.77;;;;;;;5.70;78.69;98969.25;1409187;91;21593;-84
2021/12/02 02:48:19;;;;;;;8.27;4.73;;;;;;;5.71;79.07;98967.45;1394665;93;21479;-84
2021/12/02 02:50:46;;;;;;;9.97;5.70;;;;;;;5.71;78.81;98972.70;1437023;89;21463;-83
2021/12/02 02:53:24;;;;;;;11.07;6.13;;;;;;;5.70;78.68;98965.78;1447320;89;21532;-84
2021/12/02 02:58:39;;;;;;;11.60;6.40;;;;;;;5.70;78.54;98966.63;1450881;89;21413;-84
2021/12/02 03:01:31;;;;;;;9.67;5.60;;;;;;;5.72;78.46;98955.96;1444847;89;21530;-84
2021/12/02 03:08:39;;;;;;;12.80;5.93;;;;;;;5.77;77.88;98945.84;1442761;89;21565;-85
2021/12/02 03:11:02;;;;;;;10.70;6.28;;;;;;;5.77;78.01;98947.97;1450194;89;21515;-85
2021/12/02 03:13:47;;;;;;;13.63;5.83;;;;;;;5.78;77.72;98948.78;1449375;89;21488;-85
2021/12/02 03:18:55;;;;;;;11.93;5.07;;;;;;;5.80;77.67;98943.72;1449575;89;21516;-85
2021/12/02 03:21:23;;;;;;;13.20;6.80;;;;;;;5.80;77.99;98933.72;1448901;89;21426;-85
2021/12/02 03:23:55;;;;;;;12.90;5.40;;;;;;;5.82;77.83;98935.21;1454934;89;21532;-85
2021/12/02 03:26:22;;;;;;;10.60;5.73;;;;;;;5.84;77.77;98931.10;1446128;89;21436;-85
2021/12/02 03:28:52;;;;;;;10.37;5.90;;;;;;;5.84;77.62;98925.85;1443471;89;21647;-85
2021/12/02 03:31:21;;;;;;;10.27;5.17;;;;;;;5.83;77.77;98926.34;1455572;89;22820;-85
2021/12/02 03:33:49;;;;;;;9.50;5.83;;;;;;;5.86;77.58;98932.60;1446995;89;21472;-85
2021/12/02 03:36:18;;;;;;;7.80;4.97;;;;;;;5.87;77.67;98930.33;1450275;89;21591;-85
2021/12/02 03:38:47;;;;;;;8.40;4.70;;;;;;;5.88;77.42;98926.72;1447508;89;21465;-84
2021/12/02 03:41:15;;;;;;;7.50;4.97;;;;;;;5.88;77.42;98921.46;1442866;89;21451;-85
2021/12/02 03:43:46;;;;;;;8.77;5.17;;;;;;;5.89;77.28;98928.35;1452613;89;21443;-85
2021/12/02 03:46:18;;;;;;;9.37;6.57;;;;;;;5.93;77.24;98926.30;1426158;90;21493;-85
2021/12/02 03:48:47;;;;;;;7.77;4.90;;;;;;;5.93;77.26;98924.10;1431887;89;21467;-85
2021/12/02 03:51:14;;;;;;;7.43;4.57;;;;;;;5.94;77.12;98928.43;1434649;90;22392;-84
2021/12/02 03:53:42;;;;;;;8.70;4.93;;;;;;;5.95;77.01;98924.31;1429774;90;21674;-84
2021/12/02 03:56:15;;;;;;;7.97;4.93;;;;;;;5.93;76.92;98918.84;1435877;89;21412;-84
2021/12/02 03:58:45;;;;;;;8.53;3.93;;;;;;;5.97;76.93;98914.98;1419078;91;21582;-84
2021/12/02 04:01:14;;;;;;;10.68;5.22;;;;;;;5.96;76.99;98911.54;1442717;90;22388;-85
2021/12/02 04:03:42;;;;;;;12.57;4.47;;;;;;;5.98;77.02;98919.25;1434319;90;21711;-85
2021/12/02 04:06:11;;;;;;;8.87;5.33;;;;;;;5.97;77.06;98922.86;1435690;90;22298;-85
2021/12/02 04:08:43;;;;;;;11.63;5.30;;;;;;;5.96;77.24;98929.11;1434035;90;21670;-85
2021/12/02 04:11:17;;;;;;;9.30;4.60;;;;;;;5.94;77.44;98932.37;1431125;90;22497;-86
2021/12/02 04:16:26;;;;;;;11.50;5.90;;;;;;;5.94;77.32;98939.75;1424836;90;21479;-86
2021/12/02 04:18:54;;;;;;;12.27;5.87;;;;;;;5.93;77.42;98946.42;1433586;90;21507;-86
2021/12/02 04:21:21;;;;;;;12.20;4.87;;;;;;;5.95;77.42;98942.70;1435846;90;21537;-86
2021/12/02 04:23:49;;;;;;;8.00;5.20;;;;;;;5.93;77.45;98937.23;1431839;90;21603;-86
2021/12/02 04:26:16;;;;;;;11.67;5.03;;;;;;;5.93;77.63;98933.30;1434138;90;21545;-86
2021/12/02 04:28:44;;;;;;;11.27;5.87;;;;;;;5.93;77.76;98941.17;1442855;90;21534;-86
2021/12/02 04:31:13;;;;;;;7.17;4.87;;;;;;;5.92;77.76;98935.59;1430040;90;21464;-86
2021/12/02 04:33:40;;;;;;;6.93;4.97;;;;;;;5.91;77.89;98925.59;1439141;90;21449;-86
2021/12/02 04:36:07;;;;;;;10.77;5.43;;;;;;;5.91;77.95;98921.65;1438304;90;21670;-85
2021/12/02 04:38:36;;;;;;;7.50;4.80;;;;;;;5.92;78.08;98921.16;1432605;90;21647;-86
2021/12/02 04:41:04;;;;;;;7.47;4.60;;;;;;;5.91;78.03;98924.77;1437494;90;21709;-85
2021/12/02 04:43:32;;;;;;;10.53;4.70;;;;;;;5.89;78.31;98924.41;1434350;90;21449;-85
2021/12/02 04:45:59;;;;;;;9.03;4.80;;;;;;;5.91;78.27;98927.39;1435241;89;21738;-85
2021/12/02 04:48:26;;;;;;;7.03;3.93;;;;;;;5.93;78.24;98930.66;1437939;89;21664;-85
2021/12/02 04:50:53;;;;;;;5.47;4.10;;;;;;;5.94;78.31;98927.11;1441311;90;21441;-84
2021/12/02 04:53:20;;;;;;;7.93;4.97;;;;;;;5.96;78.20;98934.36;1440577;90;21729;-87
2021/12/02 04:55:48;;;;;;;7.07;4.07;;;;;;;5.98;78.33;98941.08;1430485;91;22389;-87
2021/12/02 04:58:15;;;;;;;7.23;4.63;;;;;;;6.01;78.34;98942.58;1427073;91;21486;-85
2021/12/02 05:00:42;;;;;;;7.57;4.57;;;;;;;6.04;78.27;98938.32;1430919;91;21605;-86
2021/12/02 05:03:10;;;;;;;8.77;5.70;;;;;;;6.06;78.45;98939.00;1435463;91;21405;-85
2021/12/02 05:05:37;;;;;;;6.90;4.47;;;;;;;6.08;78.44;98927.86;1422625;91;21515;-83
2021/12/02 05:08:05;;;;;;;7.87;4.73;;;;;;;6.13;78.29;98932.16;1433584;91;21449;-86
2021/12/02 05:10:32;;;;;;;10.50;5.03;;;;;;;6.14;78.46;98932.48;1429711;91;22897;-84
2021/12/02 05:13:00;;;;;;;7.93;4.57;;;;;;;6.16;78.46;98927.91;1426930;90;21561;-85
2021/12/02 05:15:28;;;;;;;7.80;4.00;;;;;;;6.18;78.43;98936.93;1426088;91;21450;-85
2021/12/02 05:17:56;;;;;;;8.13;4.57;;;;;;;6.19;78.47;98944.67;1427596;91;21479;-84
2021/12/02 05:20:23;;;;;;;8.13;4.27;;;;;;;6.20;78.59;98943.68;1423287;91;22128;-83
2021/12/02 05:22:51;;;;;;;16.00;6.00;;;;;;;6.19;78.78;98939.91;1434108;91;21457;-84
2021/12/02 05:25:18;;;;;;;10.47;5.50;;;;;;;6.21;78.78;98954.52;1404268;91;22395;-84
2021/12/02 05:27:46;;;;;;;10.83;4.70;;;;;;;6.22;78.71;98950.92;1426781;91;21589;-84
2021/12/02 05:30:14;;;;;;;15.77;5.50;;;;;;;6.22;79.03;98950.92;1430975;91;21500;-84
2021/12/02 05:32:43;;;;;;;13.10;5.80;;;;;;;6.21;79.41;98959.77;1422773;91;21487;-85
2021/12/02 05:35:10;;;;;;;7.40;4.40;;;;;;;6.21;79.83;98959.77;1429708;89;21596;-85
2021/12/02 05:37:38;;;;;;;9.13;4.40;;;;;;;6.15;80.86;98954.32;1422321;91;21553;-85
2021/12/02 05:40:06;;;;;;;7.07;4.50;;;;;;;6.13;80.79;98954.49;1429397;91;21560;-85
2021/12/02 05:42:35;;;;;;;9.60;5.30;;;;;;;6.07;81.83;98955.93;1426195;91;22470;-85
2021/12/02 05:45:04;;;;;;;7.07;4.57;;;;;;;6.01;82.25;98939.95;1427463;91;21525;-83
2021/12/02 05:47:32;;;;;;;8.97;5.20;;;;;;;5.94;83.22;98948.94;1428804;89;21479;-85
2021/12/02 05:49:59;;;;;;;11.07;5.27;;;;;;;5.86;84.31;98950.98;1429742;89;21560;-85
2021/12/02 05:52:26;;;;;;;8.53;5.00;;;;;;;5.83;84.38;98946.04;1431063;91;21582;-84
2021/12/02 05:54:53;;;;;;;7.30;4.27;;;;;;;5.74;86.21;98933.84;1415408;91;21525;-85
2021/12/02 05:57:21;;;;;;;6.73;4.53;;;;;;;5.74;86.03;98946.14;1378788;94;21709;-85
2021/12/02 05:59:48;;;;;;;9.33;5.90;;;;;;;5.71;86.36;98945.95;1402885;92;22300;-86
2021/12/02 06:02:15;;;;;;;8.60;5.13;;;;;;;5.68;86.80;98958.08;1400680;92;22205;-84
2021/12/02 06:04:44;;;;;;;8.87;4.60;;;;;;;5.67;86.50;98952.50;1402380;92;21634;-84
2021/12/02 06:07:12;;;;;;;9.37;4.80;;;;;;;5.69;86.55;98958.89;1414454;91;21670;-86
2021/12/02 06:09:39;;;;;;;7.70;4.93;;;;;;;5.69;86.11;98957.09;1379416;94;21668;-85
2021/12/02 06:12:08;;;;;;;5.97;4.00;;;;;;;5.69;85.83;98953.15;1384607;94;21701;-85
2021/12/02 06:14:36;;;;;;;7.33;4.90;;;;;;;5.71;85.31;98951.20;1385941;93;21583;-85
2021/12/02 06:17:06;;;;;;;8.37;4.63;;;;;;;5.73;85.01;98953.20;1391114;94;21621;-85
2021/12/02 06:19:33;;;;;;;11.65;5.70;;;;;;;5.75;84.35;98953.84;1391608;94;21531;-84
2021/12/02 06:22:01;;;;;;;6.77;4.27;;;;;;;5.75;83.91;98965.66;1390569;94;21627;-85
2021/12/02 06:24:42;;;;;;;9.03;4.07;;;;;;;5.78;83.75;98964.08;1386994;93;21702;-84
2021/12/02 06:27:02;;;;;;;10.00;5.90;;;;;;;5.81;83.72;98963.77;1382323;94;23075;-83
2021/12/02 06:29:31;;;;;;;10.70;4.90;;;;;;;5.83;83.22;98957.85;1383651;94;21398;-84
2021/12/02 06:31:58;;;;;;;8.37;4.27;;;;;;;5.86;82.76;98964.11;1385911;94;21684;-84
2021/12/02 06:34:25;;;;;;;10.67;5.50;;;;;;;5.91;82.90;98971.54;1407086;92;21546;-83
2021/12/02 06:36:52;;;;;;;8.77;4.90;;;;;;;5.94;82.84;98972.58;1404668;92;21687;-83
2021/12/02 06:39:19;;;;;;;7.93;4.47;;;;;;;5.96;82.74;98965.37;1373534;93;23616;-83
2021/12/02 06:41:47;;;;;;;10.00;5.80;;;;;;;6.00;82.47;98972.45;1375692;93;21362;-83
2021/12/02 06:44:14;;;;;;;9.47;5.03;;;;;;;6.03;82.46;98966.89;1395173;93;21442;-85
2021/12/02 06:46:41;;;;;;;14.97;6.13;;;;;;;6.03;82.27;98967.70;1391695;93;22019;-84
2021/12/02 06:49:09;;;;;;;7.90;5.37;;;;;;;6.04;82.00;98968.06;1394759;93;21960;-85
2021/12/02 06:51:36;;;;;;;10.30;6.27;;;;;;;6.04;81.70;98977.72;1416423;89;21707;-85
2021/12/02 06:54:06;;;;;;;9.13;5.07;;;;;;;6.01;81.19;98981.50;1403475;90;21547;-85
2021/12/02 06:56:34;;;;;;;10.20;5.20;;;;;;;6.04;81.36;98986.91;1433670;90;21444;-85
2021/12/02 06:59:01;;;;;;;12.33;6.30;;;;;;;6.05;81.03;98986.77;1441436;90;21465;-85
2021/12/02 07:01:28;;;;;;;10.80;4.93;;;;;;;6.05;80.73;98985.45;1440356;90;21377;-85
2021/12/02 07:03:56;;;;;;;9.27;5.37;;;;;;;6.06;80.80;98984.47;1433276;90;21449;-84
2021/12/02 07:06:24;;;;;;;10.30;5.53;;;;;;;6.09;80.98;98987.28;1438178;90;21474;-84
2021/12/02 07:08:53;;;;;;;7.53;4.87;;;;;;;6.12;80.76;98988.28;1440686;90;22384;-84
2021/12/02 07:11:21;;;;;;;9.97;5.27;;;;;;;6.13;80.56;98988.64;1440072;90;22833;-84
2021/12/02 07:13:51;;;;;;;12.87;6.53;;;;;;;6.12;80.87;98992.72;1447219;90;21534;-86
2021/12/02 07:16:20;;;;;;;8.30;4.80;;;;;;;6.11;80.41;98990.59;1435374;90;21682;-85
2021/12/02 07:18:54;;;;;;;7.37;4.20;;;;;;;6.12;80.71;98996.66;1440206;90;21421;-84
2021/12/02 07:21:16;;;;;;;7.53;5.00;;;;;;;6.16;80.40;98994.90;1436419;90;24110;-84
2021/12/02 07:23:44;;;;;;;13.50;5.60;;;;;;;6.19;80.30;98982.77;1436010;90;21399;-84
2021/12/02 07:26:11;;;;;;;9.30;6.07;;;;;;;6.24;80.26;98992.80;1444443;90;22618;-84
2021/12/02 07:28:38;;;;;;;11.83;5.07;;;;;;;6.27;79.78;98989.85;1442416;90;21751;-85
2021/12/02 07:31:09;;;;;;;11.77;5.43;;;;;;;6.30;79.80;98982.51;1441970;90;21519;-86
2021/12/02 07:33:38;;;;;;;;;;;;;;;6.35;79.34;98982.02;1436342;90;21385;-84
2021/12/02 07:36:06;;;;;;;14.57;7.33;;;;;;;6.40;79.33;98980.25;1436847;90;20381;-84
2021/12/02 07:38:38;;;;;;;14.20;6.73;;;;;;;6.44;79.42;98975.83;1418749;90;21467;-85
2021/12/02 07:41:05;;;;;;;9.53;5.07;;;;;;;6.52;79.54;98973.73;1436487;90;21500;-85
2021/12/02 07:43:37;;;;;;;7.73;4.80;;;;;;;6.59;79.26;98965.57;1435560;90;21304;-85
2021/12/02 07:46:05;;;;;;;10.83;4.40;;;;;;;6.65;79.18;98968.88;1432759;90;21481;-85
2021/12/02 07:48:34;;;;;;;8.30;3.87;;;;;;;6.72;78.47;98965.94;1427121;88;21700;-85
2021/12/02 07:51:06;;;;;;;10.03;5.50;;;;;;;6.81;77.87;98971.23;1427436;90;22284;-85
2021/12/02 07:53:33;;;;;;;8.77;5.83;;;;;;;6.89;78.03;98977.84;1404688;91;21442;-87
2021/12/02 07:56:04;;;;;;;8.27;5.30;;;;;;;6.99;77.76;98971.94;1470568;87;21340;-86
2021/12/02 07:58:33;;;;;;;10.25;4.97;;;;;;;7.07;77.37;98981.17;1466283;87;21610;-86
2021/12/02 08:01:02;;;;;;;9.03;5.57;;;;;;;7.14;77.20;98975.61;1473986;87;21391;-86
2021/12/02 08:03:31;;;;;;;8.03;4.00;;;;;;;7.20;76.66;98981.55;1470827;87;21707;-86
2021/12/02 08:30:26;;;;;;;9.03;4.97;;;;;;;8.67;72.79;98974.55;1483683;85;29464;-85
2021/12/02 08:32:53;;;;;;;8.27;3.80;;;;;;;8.66;72.42;98980.33;1467098;88;21493;-85
2021/12/02 08:35:19;;;;;;;7.27;5.13;;;;;;;8.72;72.60;98976.19;1469025;88;21529;-85
2021/12/02 08:37:49;;;;;;;11.17;4.90;;;;;;;8.74;72.14;98970.22;1466555;88;21404;-85
2021/12/02 08:40:22;;;;;;;6.37;4.03;;;;;;;8.67;71.33;98977.19;1473233;88;21700;-84
2021/12/02 08:42:49;;;;;;;9.57;4.97;;;;;;;8.53;71.58;98967.66;1470461;88;21704;-84
2021/12/02 08:45:16;;;;;;;8.73;3.87;;;;;;;8.45;71.83;98958.96;1463934;88;21546;-82
2021/12/02 08:47:45;;;;;;;6.57;3.67;;;;;;;8.42;72.33;98967.20;1462503;88;21530;-83
2021/12/02 08:50:19;;;;;;;4.80;3.40;;;;;;;8.46;72.17;98958.80;1455636;88;21470;-83
2021/12/02 08:52:51;;;;;;;8.13;4.00;;;;;;;8.53;71.67;98961.57;1477349;88;21989;-83
2021/12/02 08:55:20;;;;;;;7.13;4.47;;;;;;;8.54;71.75;98962.70;1466868;88;21647;-84
2021/12/02 08:57:50;;;;;;;5.67;4.13;;;;;;;8.67;71.91;98961.36;1459848;88;22793;-83
2021/12/02 09:00:20;;;;;;;8.93;4.37;;;;;;;8.70;71.63;98975.53;1461673;88;22474;-83
2021/12/02 09:02:48;;;;;;;8.20;3.03;;;;;;;8.90;70.95;98971.48;1439308;90;21452;-83
2021/12/02 09:05:16;;;;;;;5.00;3.37;;;;;;;8.95;70.64;98973.61;1441684;90;21405;-82
2021/12/02 09:07:43;;;;;;;6.20;3.53;;;;;;;8.92;70.06;98967.33;1442616;90;21649;-83
2021/12/02 09:10:10;;;;;;;6.67;3.70;;;;;;;8.89;70.53;98963.72;1429502;90;21398;-83
2021/12/02 09:12:36;;;;;;;7.23;4.07;;;;;;;8.81;70.32;98973.33;1383915;90;21611;-83
2021/12/02 09:15:10;;;;;;;6.27;4.10;;;;;;;8.73;71.20;98962.00;1433380;90;21699;-83
2021/12/02 09:17:35;;;;;;;6.53;3.65;;;;;;;8.69;71.68;98963.31;1436615;90;21527;-83
2021/12/02 09:20:05;;;;;;;7.50;4.10;;;;;;;8.80;71.16;98959.83;1429779;90;21566;-83
2021/12/02 09:22:32;;;;;;;6.87;3.90;;;;;;;8.94;71.46;98948.20;1435143;91;21518;-83
2021/12/02 09:24:58;;;;;;;5.43;3.73;;;;;;;9.07;70.74;98930.50;1428431;91;21482;-83
2021/12/02 09:27:25;;;;;;;6.80;4.00;;;;;;;9.18;71.07;98930.10;1431437;91;21429;-83
2021/12/02 09:29:51;;;;;;;6.10;3.87;;;;;;;9.30;69.91;98928.69;1428754;90;21520;-83
2021/12/02 09:32:18;;;;;;;8.93;4.90;;;;;;;9.64;68.30;98931.41;1438856;90;21641;-84
2021/12/02 09:34:45;;;;;;;6.37;3.83;;;;;;;10.45;67.00;98937.73;1446968;89;21456;-84
2021/12/02 09:37:12;;;;;;;6.87;4.00;;;;;;;11.24;64.09;98944.97;1446475;89;21524;-84
2021/12/02 09:39:39;;;;;;;7.13;3.90;;;;;;;11.95;63.33;98936.56;1416799;89;21670;-84
2021/12/02 09:42:10;;;;;;;8.30;4.23;;;;;;;12.38;60.68;98931.65;1446156;89;21465;-84
2021/12/02 09:44:38;;;;;;;6.10;3.72;;;;;;;11.75;61.34;98941.68;1464058;89;21644;-84
2021/12/02 09:47:06;;;;;;;7.17;4.27;;;;;;;11.16;63.13;98947.22;1468277;89;21769;-83
2021/12/02 09:49:34;;;;;;;7.80;4.23;;;;;;;10.55;64.84;98950.67;1455647;89;21478;-84
2021/12/02 09:52:03;;;;;;;6.70;4.03;;;;;;;10.08;66.70;98946.53;1443624;89;21404;-83
2021/12/02 09:54:33;;;;;;;9.67;4.80;;;;;;;9.70;68.15;98947.36;1455511;87;21511;-83
2021/12/02 09:57:03;;;;;;;6.30;4.10;;;;;;;9.46;69.33;98951.00;1445844;90;24181;-83
2021/12/02 09:59:34;;;;;;;8.80;4.33;;;;;;;9.28;70.15;98945.70;1436924;90;22342;-84
2021/12/02 10:02:02;;;;;;;8.17;4.00;;;;;;;9.10;70.78;98949.94;1444166;89;22477;-83
2021/12/02 10:04:29;;;;;;;7.40;4.33;;;;;;;8.93;71.21;98944.75;1446489;89;21626;-83
2021/12/02 10:07:35;;;;;;;6.43;4.10;;;;;;;8.69;71.67;98947.48;1454648;89;21692;-83
2021/12/02 10:10:11;;;;;;;5.97;3.33;;;;;;;8.59;71.63;98943.24;1446786;90;21514;-83
2021/12/02 10:12:37;;;;;;;7.33;3.70;;;;;;;8.49;71.73;98941.32;1440656;90;21664;-82
2021/12/02 10:15:12;;;;;;;7.10;4.43;;;;;;;8.31;72.09;98942.81;1462968;89;21669;-83
2021/12/02 10:17:41;;;;;;;7.33;4.53;;;;;;;8.26;72.26;98932.48;1455360;89;21662;-83
2021/12/02 10:23:18;;;;;;;7.80;5.10;;;;;;;8.23;73.03;98931.00;1449883;89;22360;-85
2021/12/02 10:25:48;;;;;;;5.67;4.30;;;;;;;8.23;72.99;98924.88;1445581;89;21484;-85
2021/12/02 10:28:17;;;;;;;9.23;4.90;;;;;;;8.23;72.96;98911.23;1451990;89;21486;-86
2021/12/02 10:30:49;;;;;;;11.23;5.97;;;;;;;8.24;73.24;98912.05;1442535;89;22580;-86
2021/12/02 10:33:42;;;;;;;9.77;4.70;;;;;;;8.24;73.38;98912.86;1437885;89;21618;-86
2021/12/02 10:36:31;;;;;;;8.23;4.07;;;;;;;8.25;73.60;98925.54;1439344;89;22536;-86
2021/12/02 10:39:18;;;;;;;4.90;3.60;;;;;;;8.22;73.20;98912.20;1437356;89;21485;-86
2021/12/02 10:41:48;;;;;;;7.53;4.37;;;;;;;8.20;72.93;98911.56;1443921;89;21559;-86
2021/12/02 10:44:23;;;;;;;9.23;5.63;;;;;;;8.17;73.34;98918.97;1438989;89;21499;-86
2021/12/02 10:47:00;;;;;;;7.67;5.27;;;;;;;8.16;73.71;98927.88;1445251;89;21529;-85
2021/12/02 10:49:34;;;;;;;7.50;3.90;;;;;;;8.16;73.90;98928.69;1437815;89;21538;-86
2021/12/02 10:52:04;;;;;;;8.27;3.90;;;;;;;8.11;74.04;98931.85;1450987;89;21633;-86
2021/12/02 10:54:36;;;;;;;8.25;4.10;;;;;;;8.10;73.69;98932.82;1446343;89;22557;-86
2021/12/02 10:57:17;;;;;;;8.10;4.50;;;;;;;8.06;74.01;98931.52;1439277;89;21568;-86
2021/12/02 10:59:59;;;;;;;7.63;4.17;;;;;;;8.05;74.21;98917.19;1442677;89;22439;-89
2021/12/02 11:02:39;;;;;;;10.57;4.00;;;;;;;8.04;74.53;98917.69;1442925;90;22571;-91
2021/12/02 11:05:11;;;;;;;5.67;3.70;;;;;;;8.04;74.58;98916.38;1439401;91;21537;-89
2021/12/02 11:07:40;;;;;;;6.27;4.00;;;;;;;8.05;74.58;98916.69;1440677;90;21744;-91
2021/12/02 11:10:14;;;;;;;5.03;3.63;;;;;;;8.08;74.50;98918.98;1436254;90;21644;-91
2021/12/02 11:12:48;;;;;;;5.70;3.83;;;;;;;8.16;74.76;98916.02;1432781;90;21626;-91
2021/12/02 11:15:27;;;;;;;6.77;4.57;;;;;;;8.17;74.97;98909.74;1438211;91;21604;-90
2021/12/02 11:18:03;;;;;;;5.93;4.37;;;;;;;8.24;74.96;98910.73;1433485;90;22394;-92
2021/12/02 11:20:37;;;;;;;5.23;4.17;;;;;;;8.24;74.76;98905.45;1443706;91;21611;-91
2021/12/02 11:23:18;;;;;;;5.93;3.50;;;;;;;8.24;74.92;98888.33;1436567;91;21426;-91
2021/12/02 11:26:08;;;;;;;8.48;4.95;;;;;;;8.24;75.00;98878.59;1437804;90;22381;-90
2021/12/02 11:28:37;;;;;;;7.83;4.20;;;;;;;8.25;75.42;98874.14;1434099;91;21508;-90
2021/12/02 11:31:17;;;;;;;5.87;3.92;;;;;;;8.27;75.51;98880.89;1448493;90;21500;-90
2021/12/02 11:33:46;;;;;;;6.93;4.47;;;;;;;8.26;75.85;98883.72;1433422;91;21583;-91
2021/12/02 11:36:25;;;;;;;7.33;4.87;;;;;;;8.30;75.87;98874.46;1439498;89;21501;-92
2021/12/02 11:38:57;;;;;;;7.47;4.67;;;;;;;8.25;75.62;98878.09;1439134;91;22477;-91
2021/12/02 11:41:23;;;;;;;7.73;4.17;;;;;;;8.29;76.10;98878.91;1428969;90;21544;-91
2021/12/02 11:43:50;;;;;;;8.00;4.57;;;;;;;8.28;76.00;98876.44;1438981;91;21619;-86
2021/12/02 11:46:17;;;;;;;8.83;5.53;;;;;;;8.26;76.11;98885.03;1438537;90;21411;-85
2021/12/02 11:48:44;;;;;;;9.80;4.23;;;;;;;8.25;76.55;98884.69;1446889;91;21582;-86
2021/12/02 11:51:14;;;;;;;6.03;4.37;;;;;;;8.23;76.87;98882.70;1443852;91;22425;-85
2021/12/02 11:53:41;;;;;;;7.70;5.10;;;;;;;8.22;76.88;98877.94;1440324;90;21471;-85
2021/12/02 11:56:12;;;;;;;8.50;5.33;;;;;;;8.23;77.05;98877.44;1442518;91;21538;-85
2021/12/02 11:58:39;;;;;;;7.33;4.83;;;;;;;8.28;77.88;98867.20;1438181;91;22410;-85
2021/12/02 12:01:09;;;;;;;6.77;5.10;;;;;;;8.31;76.61;98862.41;1436332;91;21441;-85
2021/12/02 12:03:43;;;;;;;9.23;5.07;;;;;;;8.33;76.65;98859.12;1454438;89;22460;-85
2021/12/02 12:06:16;;;;;;;6.60;4.17;;;;;;;8.46;76.72;98859.09;1435771;91;21603;-85
2021/12/02 12:08:46;;;;;;;8.00;4.17;;;;;;;8.63;76.52;98858.51;1430917;91;21774;-86
2021/12/02 12:11:26;;;;;;;9.73;4.83;;;;;;;8.67;76.01;98862.46;1442633;91;21464;-85
2021/12/02 12:14:12;;;;;;;7.07;5.07;;;;;;;8.68;75.74;98857.50;1440169;91;21693;-85
2021/12/02 12:16:50;;;;;;;8.93;5.73;;;;;;;8.62;76.24;98847.14;1436486;91;21471;-85
2021/12/02 12:19:33;;;;;;;8.93;4.77;;;;;;;8.64;76.04;98847.80;1440609;91;21574;-85
2021/12/02 12:22:06;;;;;;;7.17;4.83;;;;;;;8.61;76.37;98842.06;1440131;91;21463;-85
2021/12/02 12:24:55;;;;;;;6.87;4.23;;;;;;;8.59;76.28;98839.08;1437439;90;22379;-85
2021/12/02 12:27:35;;;;;;;7.70;4.57;;;;;;;8.56;76.47;98839.93;1439975;91;22359;-87
2021/12/02 12:30:11;;;;;;;8.70;4.37;;;;;;;8.51;76.56;98848.84;1444417;91;21501;-83
2021/12/02 12:33:02;;;;;;;6.83;4.47;;;;;;;8.52;77.62;98852.64;1433928;91;21612;-84
2021/12/02 12:38:33;;;;;;;11.17;4.83;;;;;;;8.40;77.03;98848.76;1447328;89;21475;-88